Cedar, KS (67628)

7:02 AM CDT on July 25, 2016 (GMT -0500)
NonFedAWOS | | Change Station

Elev 1798 ft 39.76 °N, 98.79 °W | Updated 19 minutes ago

Rain
Rain Mist
66 °F
Feels Like 66 °F
N
3
Wind Variable Wind from East
Gusts 0.0 mph

Today
High -- | Low -- °F
--% Chance of Precip.
Yesterday
High -- | Low -- °F
Precip. -- in
Pressure 30.04 in
Visibility 5.0 miles
Clouds Mostly Cloudy 11000 ft
Dew Point 64 °F
Humidity 94%
Rainfall in
Snow Depth Not available.
6:29 AM 8:54 PM
Waning Gibbous, 66% visible
METAR KHLC 251153Z AUTO 02004KT 5SM RA BR BKN110 19/18 A3010 RMK AO2 SLP170 P0005 60011 70011 T01890183 10239 20183 58008 TSNO
Pressure 30.04 in
Visibility 5.0 miles
Clouds Mostly Cloudy 11000 ft
Dew Point 64 °F
Humidity 94%
Rainfall in
Snow Depth Not available.
6:29 AM 8:54 PM
Waning Gibbous, 66% visible
METAR KHLC 251153Z AUTO 02004KT 5SM RA BR BKN110 19/18 A3010 RMK AO2 SLP170 P0005 60011 70011 T01890183 10239 20183 58008 TSNO

10-Day Weather Forecast

Almanac

Astronomy

Jul. 25, 2016 Rise Set
Actual Time
Civil Twilight
Nautical Twilight
Astronomical Twilight
Moon
Length of Visible Light
Length of Day
Tomorrow will be .
, % of the Moon is Illuminated

Today's Extremes

State Highs State Lows

Community

WunderPhotos

Upload Photos

1,927,294 photos uploaded!

WunderBlog® & News

Nearby

Air Quality

  Air Quality AQ Index Pollutant
Not available.

Snow Depth

Station Depth Elevation

Earthquake Activity

City Distance Mag. Time & Date
Minimum magnitude displayed is 2.5.

Coastal Water Temperatures

Place Temperature

Stations

Nearby Weather Stations

Station Location Temp. Windchill Dew Point Humidity Wind Precip. Elev Updated Type
                   

Watches & Warnings

There are currently no watches in effect.